Time;durP1;ratioP1;P1;durP2;ratioP2;P2;SDS_P1;SDS_P2;PMS_P1;PMS_P2;Temp;Humidity;BMP_temperature;BMP_pressure;BME280_temperature;BME280_humidity;BME280_pressure;Samples;Min_cycle;Max_cycle;Signal;HPM_P1;HPM_P2
2023/04/20 00:00:16;;;;;;;2.15;1.80;;;;;;;;;;4997555;28;20454;-51
2023/04/20 00:02:42;;;;;;;2.00;1.85;;;;;;;;;;4996648;28;20505;-51
2023/04/20 00:05:09;;;;;;;2.40;2.20;;;;;;;;;;4997487;28;20615;-51
2023/04/20 00:07:35;;;;;;;1.85;1.70;;;;;;;;;;4994965;28;20557;-51
2023/04/20 00:10:02;;;;;;;2.08;1.90;;;;;;;;;;4996119;28;20199;-51
2023/04/20 00:12:28;;;;;;;2.53;1.65;;;;;;;;;;4980915;28;20188;-51
2023/04/20 00:14:54;;;;;;;1.90;1.80;;;;;;;;;;4997085;28;20189;-51
2023/04/20 00:17:21;;;;;;;1.90;1.80;;;;;;;;;;4996259;28;20255;-51
2023/04/20 00:19:47;;;;;;;2.00;1.77;;;;;;;;;;4996968;28;20264;-51
2023/04/20 00:22:13;;;;;;;1.80;1.70;;;;;;;;;;4997891;28;20565;-51
2023/04/20 00:24:39;;;;;;;1.85;1.75;;;;;;;;;;4997675;28;20229;-51
2023/04/20 00:27:05;;;;;;;1.95;1.80;;;;;;;;;;4996734;28;20263;-51
2023/04/20 00:29:31;;;;;;;1.85;1.75;;;;;;;;;;4996643;28;20631;-51
2023/04/20 00:31:56;;;;;;;1.77;1.67;;;;;;;;;;4995808;28;20264;-51
2023/04/20 00:34:22;;;;;;;1.88;1.63;;;;;;;;;;4997208;28;20189;-50
2023/04/20 00:36:48;;;;;;;2.55;1.92;;;;;;;;;;4995470;28;20496;-51
2023/04/20 00:39:15;;;;;;;2.00;1.77;;;;;;;;;;4997028;28;20236;-51
2023/04/20 00:41:41;;;;;;;2.05;1.80;;;;;;;;;;4996325;28;20678;-51
2023/04/20 00:44:10;;;;;;;1.83;1.73;;;;;;;;;;4996731;28;20189;-51
2023/04/20 00:46:36;;;;;;;3.28;2.10;;;;;;;;;;4996620;28;20181;-51
2023/04/20 00:49:02;;;;;;;1.88;1.70;;;;;;;;;;4995969;28;20189;-51
2023/04/20 00:51:28;;;;;;;2.28;2.00;;;;;;;;;;4995744;28;20235;-51
2023/04/20 00:53:54;;;;;;;1.83;1.73;;;;;;;;;;4996740;28;20475;-51
2023/04/20 00:56:20;;;;;;;1.80;1.70;;;;;;;;;;4993067;28;20233;-51
2023/04/20 00:58:46;;;;;;;1.63;1.52;;;;;;;;;;4994444;28;20193;-51
2023/04/20 01:01:16;;;;;;;1.92;1.83;;;;;;;;;;4996071;28;20173;-51
2023/04/20 01:03:42;;;;;;;1.60;1.50;;;;;;;;;;4995305;28;20197;-51
2023/04/20 01:06:08;;;;;;;2.08;1.88;;;;;;;;;;4996087;28;20173;-51
2023/04/20 01:08:34;;;;;;;2.28;2.08;;;;;;;;;;4996810;28;20264;-51
2023/04/20 01:11:00;;;;;;;2.38;1.90;;;;;;;;;;4996600;28;20260;-51
2023/04/20 01:13:26;;;;;;;2.13;1.90;;;;;;;;;;4995845;28;20181;-51
2023/04/20 01:15:52;;;;;;;3.10;1.80;;;;;;;;;;4995825;28;20181;-51
2023/04/20 01:18:18;;;;;;;1.80;1.70;;;;;;;;;;4995207;28;20271;-51
2023/04/20 01:20:45;;;;;;;2.35;1.85;;;;;;;;;;4994750;28;20174;-51
2023/04/20 01:23:11;;;;;;;1.70;1.60;;;;;;;;;;4995989;28;20260;-51
2023/04/20 01:25:37;;;;;;;2.03;1.90;;;;;;;;;;4995218;28;20263;-51
2023/04/20 01:28:03;;;;;;;1.70;1.60;;;;;;;;;;4995149;28;20223;-51
2023/04/20 01:30:30;;;;;;;1.90;1.80;;;;;;;;;;4995675;28;20185;-51
2023/04/20 01:32:56;;;;;;;1.63;1.52;;;;;;;;;;4996394;28;20189;-51
2023/04/20 01:35:21;;;;;;;2.22;1.83;;;;;;;;;;4995951;28;20200;-51
2023/04/20 01:37:47;;;;;;;2.10;1.88;;;;;;;;;;4994782;28;20201;-51
2023/04/20 01:40:13;;;;;;;1.85;1.60;;;;;;;;;;4996111;28;20178;-51
2023/04/20 01:42:40;;;;;;;2.60;1.60;;;;;;;;;;4996220;28;20189;-51
2023/04/20 01:45:06;;;;;;;2.60;1.88;;;;;;;;;;4995277;28;20188;-51
2023/04/20 01:47:32;;;;;;;1.80;1.70;;;;;;;;;;4995420;28;20196;-51
2023/04/20 01:49:58;;;;;;;1.85;1.70;;;;;;;;;;4995707;28;20519;-51
2023/04/20 01:52:24;;;;;;;1.58;1.48;;;;;;;;;;4994532;28;20283;-51
2023/04/20 01:54:50;;;;;;;2.08;1.88;;;;;;;;;;4995246;28;20208;-51
2023/04/20 01:57:15;;;;;;;3.40;2.20;;;;;;;;;;4994704;28;20288;-51
2023/04/20 01:59:41;;;;;;;1.85;1.75;;;;;;;;;;4995506;28;20177;-51
2023/04/20 02:02:07;;;;;;;1.88;1.70;;;;;;;;;;4994452;28;20185;-51
2023/04/20 02:04:33;;;;;;;1.83;1.73;;;;;;;;;;4995246;28;20535;-51
2023/04/20 02:06:59;;;;;;;2.75;1.80;;;;;;;;;;4994019;28;20201;-51
2023/04/20 02:09:25;;;;;;;1.80;1.70;;;;;;;;;;4993807;28;20212;-51
2023/04/20 02:11:51;;;;;;;3.63;1.90;;;;;;;;;;4994478;28;20216;-51
2023/04/20 02:14:17;;;;;;;2.25;1.88;;;;;;;;;;4994932;28;20177;-51
2023/04/20 02:16:43;;;;;;;1.80;1.70;;;;;;;;;;4994811;28;20209;-51
2023/04/20 02:19:09;;;;;;;1.67;1.58;;;;;;;;;;4994505;28;20188;-51
2023/04/20 02:21:35;;;;;;;1.95;1.83;;;;;;;;;;4994757;28;20205;-51
2023/04/20 02:24:00;;;;;;;2.35;1.50;;;;;;;;;;4994929;28;20493;-51
2023/04/20 02:26:26;;;;;;;1.75;1.65;;;;;;;;;;4995038;28;20193;-51
2023/04/20 02:28:52;;;;;;;1.90;1.80;;;;;;;;;;4993936;28;20220;-51
2023/04/20 02:31:18;;;;;;;1.90;1.80;;;;;;;;;;4993513;28;20488;-51
2023/04/20 02:33:46;;;;;;;2.20;2.00;;;;;;;;;;4978222;28;20219;-51
2023/04/20 02:36:12;;;;;;;1.52;1.42;;;;;;;;;;4993125;28;20579;-52
2023/04/20 02:38:38;;;;;;;2.38;1.80;;;;;;;;;;4995108;28;20189;-51
2023/04/20 02:41:04;;;;;;;3.53;1.92;;;;;;;;;;4994928;28;20184;-51
2023/04/20 02:43:30;;;;;;;1.90;1.80;;;;;;;;;;4993159;28;20178;-51
2023/04/20 02:45:56;;;;;;;1.80;1.70;;;;;;;;;;4990431;28;20537;-51
2023/04/20 02:48:22;;;;;;;1.65;1.50;;;;;;;;;;4996043;28;20185;-51
2023/04/20 02:50:48;;;;;;;2.10;1.90;;;;;;;;;;4994705;28;20182;-51
2023/04/20 02:53:13;;;;;;;1.90;1.70;;;;;;;;;;4993153;28;20236;-51
2023/04/20 02:55:39;;;;;;;2.03;1.80;;;;;;;;;;4995110;28;20595;-51
2023/04/20 02:58:05;;;;;;;2.30;1.80;;;;;;;;;;4993894;28;20255;-51
2023/04/20 03:00:31;;;;;;;1.90;1.80;;;;;;;;;;4993091;28;20184;-51
2023/04/20 03:02:57;;;;;;;1.50;1.40;;;;;;;;;;4993734;28;20200;-51
2023/04/20 03:05:23;;;;;;;1.98;1.80;;;;;;;;;;4993193;28;20561;-51
2023/04/20 03:07:49;;;;;;;1.60;1.40;;;;;;;;;;4990603;28;20235;-51
2023/04/20 03:10:15;;;;;;;1.85;1.65;;;;;;;;;;4994367;28;20595;-52
2023/04/20 03:12:41;;;;;;;1.67;1.58;;;;;;;;;;4994101;28;20393;-51
2023/04/20 03:15:07;;;;;;;1.70;1.60;;;;;;;;;;4993592;28;20189;-51
2023/04/20 03:17:33;;;;;;;4.50;1.83;;;;;;;;;;4994071;28;20204;-52
2023/04/20 03:19:59;;;;;;;1.83;1.73;;;;;;;;;;4993994;28;20207;-51
2023/04/20 03:22:25;;;;;;;2.70;2.05;;;;;;;;;;4993737;28;20173;-51
2023/04/20 03:24:51;;;;;;;1.90;1.80;;;;;;;;;;4994100;28;20189;-51
2023/04/20 03:27:18;;;;;;;2.03;1.60;;;;;;;;;;4992764;28;20189;-51
2023/04/20 03:29:44;;;;;;;2.33;1.80;;;;;;;;;;4994504;28;20251;-51
2023/04/20 03:32:10;;;;;;;1.95;1.75;;;;;;;;;;4993267;28;20197;-51
2023/04/20 03:34:36;;;;;;;2.58;1.90;;;;;;;;;;4994717;28;20503;-51
2023/04/20 03:37:02;;;;;;;5.97;2.50;;;;;;;;;;4993784;28;20200;-51
2023/04/20 03:39:27;;;;;;;6.85;2.40;;;;;;;;;;4995187;28;20260;-51
2023/04/20 03:41:53;;;;;;;3.42;2.22;;;;;;;;;;4993777;28;20243;-51
2023/04/20 03:44:19;;;;;;;2.72;2.17;;;;;;;;;;4993749;28;20192;-51
2023/04/20 03:46:45;;;;;;;18.60;4.10;;;;;;;;;;4993153;28;20195;-52
2023/04/20 03:49:11;;;;;;;21.88;6.45;;;;;;;;;;4993535;28;20255;-51
2023/04/20 03:51:37;;;;;;;18.02;4.88;;;;;;;;;;4994166;28;20296;-51
2023/04/20 03:54:04;;;;;;;18.58;4.85;;;;;;;;;;4993921;28;20189;-51
2023/04/20 03:56:30;;;;;;;10.82;3.70;;;;;;;;;;4993441;28;20193;-52
2023/04/20 03:58:56;;;;;;;17.08;4.00;;;;;;;;;;4993489;28;20569;-52
2023/04/20 04:01:22;;;;;;;9.70;3.92;;;;;;;;;;4993971;28;20178;-51
2023/04/20 04:03:48;;;;;;;11.68;3.63;;;;;;;;;;4993288;28;20209;-51
2023/04/20 04:06:14;;;;;;;10.30;3.90;;;;;;;;;;4993846;28;20476;-51
2023/04/20 04:08:40;;;;;;;9.73;3.70;;;;;;;;;;4994004;28;20208;-51
2023/04/20 04:11:05;;;;;;;14.10;3.72;;;;;;;;;;4978813;28;20279;-52
2023/04/20 04:13:31;;;;;;;9.80;3.88;;;;;;;;;;4997507;28;20200;-51
2023/04/20 04:15:57;;;;;;;9.32;3.72;;;;;;;;;;4996947;28;20185;-51
2023/04/20 04:18:23;;;;;;;10.88;3.92;;;;;;;;;;4997230;28;20213;-51
2023/04/20 04:20:50;;;;;;;9.32;3.47;;;;;;;;;;4997245;28;20208;-51
2023/04/20 04:23:15;;;;;;;9.23;3.38;;;;;;;;;;4996034;28;20185;-51
2023/04/20 04:25:42;;;;;;;12.23;3.70;;;;;;;;;;4997326;28;20177;-51
2023/04/20 04:28:07;;;;;;;11.98;3.95;;;;;;;;;;4995693;28;20212;-51
2023/04/20 04:30:34;;;;;;;11.50;4.32;;;;;;;;;;4997569;28;20634;-51
2023/04/20 04:32:59;;;;;;;9.10;3.45;;;;;;;;;;4996306;28;20186;-51
2023/04/20 04:35:25;;;;;;;6.53;3.63;;;;;;;;;;4996638;28;20192;-51
2023/04/20 04:37:52;;;;;;;10.60;3.53;;;;;;;;;;4996125;28;20236;-51
2023/04/20 04:40:18;;;;;;;8.68;3.38;;;;;;;;;;4997335;28;20181;-51
2023/04/20 04:42:44;;;;;;;7.03;3.03;;;;;;;;;;4995881;28;20192;-51
2023/04/20 04:45:12;;;;;;;6.20;3.40;;;;;;;;;;4996946;28;20185;-51
2023/04/20 04:47:40;;;;;;;6.45;3.03;;;;;;;;;;4996359;28;20184;-51
2023/04/20 04:50:08;;;;;;;7.78;3.28;;;;;;;;;;4996591;28;20184;-51
2023/04/20 04:52:34;;;;;;;5.97;3.72;;;;;;;;;;4995653;28;20191;-51
2023/04/20 04:55:00;;;;;;;6.30;2.80;;;;;;;;;;4980480;28;20199;-51
2023/04/20 04:57:26;;;;;;;6.80;2.97;;;;;;;;;;4995855;28;20209;-51
2023/04/20 04:59:52;;;;;;;6.57;3.08;;;;;;;;;;4996684;28;20186;-51
2023/04/20 05:02:18;;;;;;;5.13;3.17;;;;;;;;;;4996508;28;20185;-51
2023/04/20 05:04:44;;;;;;;4.88;2.70;;;;;;;;;;4995835;28;20858;-51
2023/04/20 05:07:10;;;;;;;5.85;2.95;;;;;;;;;;4996122;28;20234;-51
2023/04/20 05:09:36;;;;;;;6.50;3.15;;;;;;;;;;4996183;28;20226;-51
2023/04/20 05:12:03;;;;;;;8.93;3.20;;;;;;;;;;4996875;28;20557;-51
2023/04/20 05:14:32;;;;;;;6.72;3.05;;;;;;;;;;4995462;28;20449;-51
2023/04/20 05:16:58;;;;;;;4.25;2.63;;;;;;;;;;4995675;28;20201;-52
2023/04/20 05:19:24;;;;;;;3.58;2.55;;;;;;;;;;4996328;28;20197;-52
2023/04/20 05:21:50;;;;;;;4.47;2.88;;;;;;;;;;4994908;28;20219;-52
2023/04/20 05:24:18;;;;;;;5.05;2.78;;;;;;;;;;4995761;28;20188;-52
2023/04/20 05:26:44;;;;;;;5.40;2.78;;;;;;;;;;4996211;28;20569;-52
2023/04/20 05:29:10;;;;;;;5.20;2.75;;;;;;;;;;4995688;28;20235;-51
2023/04/20 05:31:36;;;;;;;5.50;2.75;;;;;;;;;;4995687;28;20580;-52
2023/04/20 05:34:01;;;;;;;5.43;2.53;;;;;;;;;;4995550;28;20430;-52
2023/04/20 05:36:28;;;;;;;6.57;2.85;;;;;;;;;;4996321;28;20201;-52
2023/04/20 05:38:54;;;;;;;4.78;2.63;;;;;;;;;;4994850;28;20479;-51
2023/04/20 05:41:25;;;;;;;5.70;2.72;;;;;;;;;;4995236;28;20193;-49
2023/04/20 05:43:51;;;;;;;3.65;2.35;;;;;;;;;;4996306;28;20181;-51
2023/04/20 05:46:17;;;;;;;4.13;2.67;;;;;;;;;;4992462;28;20180;-51
2023/04/20 05:48:43;;;;;;;4.43;2.70;;;;;;;;;;4994417;28;20280;-51
2023/04/20 05:51:09;;;;;;;3.63;2.55;;;;;;;;;;4994357;28;20623;-51
2023/04/20 05:53:35;;;;;;;4.63;2.72;;;;;;;;;;4996068;28;20189;-51
2023/04/20 05:56:02;;;;;;;2.88;2.53;;;;;;;;;;4994751;28;20205;-51
2023/04/20 05:58:28;;;;;;;4.63;2.83;;;;;;;;;;4995156;28;20240;-51
2023/04/20 06:00:54;;;;;;;3.88;2.30;;;;;;;;;;4994928;28;20189;-51
2023/04/20 06:03:20;;;;;;;5.57;2.83;;;;;;;;;;4994528;28;20251;-51
2023/04/20 06:05:45;;;;;;;3.92;2.70;;;;;;;;;;4995660;28;20197;-51
2023/04/20 06:08:11;;;;;;;4.28;2.55;;;;;;;;;;4994766;28;20192;-51
2023/04/20 06:10:37;;;;;;;4.38;2.65;;;;;;;;;;4995147;28;20208;-51
2023/04/20 06:13:03;;;;;;;4.15;2.60;;;;;;;;;;4992765;28;20882;-50
2023/04/20 06:15:29;;;;;;;3.75;2.42;;;;;;;;;;4995245;28;20264;-51
2023/04/20 06:17:55;;;;;;;5.82;2.78;;;;;;;;;;4994965;28;20241;-51
2023/04/20 06:20:21;;;;;;;3.20;2.10;;;;;;;;;;4995294;28;20216;-51
2023/04/20 06:22:47;;;;;;;2.20;2.00;;;;;;;;;;4994760;28;20181;-51
2023/04/20 06:25:14;;;;;;;4.15;2.35;;;;;;;;;;4994295;28;20196;-51
2023/04/20 06:27:40;;;;;;;3.30;2.22;;;;;;;;;;4993776;28;20181;-51
2023/04/20 06:30:06;;;;;;;4.78;2.60;;;;;;;;;;4995105;28;20193;-51
2023/04/20 06:32:32;;;;;;;3.88;2.45;;;;;;;;;;4994468;28;20189;-51
2023/04/20 06:34:58;;;;;;;3.65;2.25;;;;;;;;;;4994041;28;20181;-51
2023/04/20 06:37:24;;;;;;;3.45;2.33;;;;;;;;;;4993962;28;20500;-51
2023/04/20 06:39:53;;;;;;;4.88;2.65;;;;;;;;;;4994027;28;20526;-51
2023/04/20 06:42:19;;;;;;;3.53;2.45;;;;;;;;;;4993326;28;20205;-51
2023/04/20 06:44:46;;;;;;;3.90;2.22;;;;;;;;;;4994704;28;20189;-51
2023/04/20 06:47:11;;;;;;;3.15;2.50;;;;;;;;;;4993871;28;20196;-51
2023/04/20 06:49:38;;;;;;;3.72;2.28;;;;;;;;;;4994841;28;20259;-51
2023/04/20 06:52:04;;;;;;;3.10;2.17;;;;;;;;;;4992923;28;20181;-51
2023/04/20 06:54:30;;;;;;;2.65;2.22;;;;;;;;;;4993616;28;20239;-51
2023/04/20 06:56:56;;;;;;;2.63;2.33;;;;;;;;;;4993859;28;20212;-51
2023/04/20 06:59:22;;;;;;;3.88;2.05;;;;;;;;;;4995153;28;20261;-51
2023/04/20 07:01:48;;;;;;;3.45;2.55;;;;;;;;;;4993751;28;20220;-51
2023/04/20 07:04:14;;;;;;;3.53;2.25;;;;;;;;;;4994229;28;20245;-49
2023/04/20 07:06:40;;;;;;;2.60;1.90;;;;;;;;;;4992586;28;20221;-51
2023/04/20 07:09:07;;;;;;;2.22;1.88;;;;;;;;;;4994295;28;20181;-51
2023/04/20 07:11:33;;;;;;;4.35;2.20;;;;;;;;;;4993264;28;20204;-52
2023/04/20 07:13:59;;;;;;;2.85;2.20;;;;;;;;;;4994935;28;20173;-52
2023/04/20 07:16:25;;;;;;;2.80;2.00;;;;;;;;;;4994372;28;20212;-51
2023/04/20 07:18:51;;;;;;;2.33;2.08;;;;;;;;;;4994306;28;20185;-51
2023/04/20 07:21:17;;;;;;;2.28;2.08;;;;;;;;;;4994253;28;20184;-51
2023/04/20 07:23:42;;;;;;;2.75;2.10;;;;;;;;;;4994860;28;20184;-51
2023/04/20 07:26:09;;;;;;;3.75;2.35;;;;;;;;;;4994661;28;20189;-51
2023/04/20 07:28:35;;;;;;;2.45;2.25;;;;;;;;;;4993898;28;20564;-51
2023/04/20 07:31:01;;;;;;;3.05;2.30;;;;;;;;;;4994867;28;20215;-51
2023/04/20 07:33:28;;;;;;;2.20;1.98;;;;;;;;;;4995023;28;20506;-51
2023/04/20 07:35:54;;;;;;;2.42;2.13;;;;;;;;;;4994280;28;20185;-51
2023/04/20 07:38:20;;;;;;;2.42;2.13;;;;;;;;;;4994796;28;20208;-51
2023/04/20 07:40:46;;;;;;;2.03;1.83;;;;;;;;;;4994756;28;20189;-51
2023/04/20 07:43:12;;;;;;;2.50;2.20;;;;;;;;;;4992503;28;20591;-51
2023/04/20 07:45:41;;;;;;;1.98;1.77;;;;;;;;;;4994635;28;20180;-51
2023/04/20 07:48:08;;;;;;;2.28;2.05;;;;;;;;;;4996970;28;20260;-51
2023/04/20 07:50:34;;;;;;;2.78;2.20;;;;;;;;;;4981081;28;20628;-51
2023/04/20 07:53:00;;;;;;;2.35;2.15;;;;;;;;;;4996898;28;20268;-51
2023/04/20 07:55:26;;;;;;;3.47;2.50;;;;;;;;;;4997450;28;20201;-51
2023/04/20 07:57:52;;;;;;;2.05;1.92;;;;;;;;;;4996877;28;20205;-52
2023/04/20 08:00:18;;;;;;;2.13;1.80;;;;;;;;;;4997573;28;20190;-51
2023/04/20 08:02:44;;;;;;;1.90;1.80;;;;;;;;;;4996298;28;20596;-51
2023/04/20 08:05:10;;;;;;;2.05;1.85;;;;;;;;;;4997657;28;20185;-51
2023/04/20 08:07:36;;;;;;;2.40;2.20;;;;;;;;;;4996645;28;20264;-51
2023/04/20 08:10:02;;;;;;;2.30;2.10;;;;;;;;;;4997944;28;20442;-51
2023/04/20 08:12:28;;;;;;;2.30;2.10;;;;;;;;;;4996733;28;20236;-51
2023/04/20 08:14:59;;;;;;;2.50;2.30;;;;;;;;;;4998178;28;20193;-52
2023/04/20 08:17:25;;;;;;;2.15;1.92;;;;;;;;;;4995932;28;20201;-51
2023/04/20 08:19:51;;;;;;;2.30;1.70;;;;;;;;;;4998027;28;20492;-51
2023/04/20 08:22:17;;;;;;;3.90;2.30;;;;;;;;;;4996174;28;20188;-51
2023/04/20 08:24:42;;;;;;;2.00;1.80;;;;;;;;;;4997770;28;20181;-51
2023/04/20 08:27:08;;;;;;;2.80;2.05;;;;;;;;;;5000719;28;20470;-51
2023/04/20 08:29:35;;;;;;;2.28;1.88;;;;;;;;;;5000523;28;20484;-51
2023/04/20 08:32:01;;;;;;;2.30;2.10;;;;;;;;;;4996248;28;20171;-51
2023/04/20 08:34:27;;;;;;;2.35;1.95;;;;;;;;;;4995698;28;20268;-51
2023/04/20 08:36:53;;;;;;;2.17;1.98;;;;;;;;;;4996910;28;20297;-51
2023/04/20 08:39:21;;;;;;;2.30;1.88;;;;;;;;;;4999294;28;20182;-51
2023/04/20 08:41:49;;;;;;;2.40;2.20;;;;;;;;;;4994665;28;20212;-51
2023/04/20 08:44:14;;;;;;;2.85;2.00;;;;;;;;;;4994395;28;20236;-52
2023/04/20 08:46:41;;;;;;;2.67;1.90;;;;;;;;;;4996541;28;20580;-51
2023/04/20 08:49:11;;;;;;;2.08;1.98;;;;;;;;;;4996646;28;20235;-51
2023/04/20 08:51:39;;;;;;;2.20;2.00;;;;;;;;;;4997074;28;20225;-51
2023/04/20 08:54:05;;;;;;;3.35;2.35;;;;;;;;;;4995661;28;20193;-51
2023/04/20 08:56:35;;;;;;;2.30;2.10;;;;;;;;;;4995354;28;20224;-51
2023/04/20 08:59:03;;;;;;;2.20;2.00;;;;;;;;;;4995787;28;20178;-51
2023/04/20 09:01:29;;;;;;;2.10;1.90;;;;;;;;;;4996479;28;20264;-51
2023/04/20 09:03:55;;;;;;;2.35;1.90;;;;;;;;;;4996302;28;20289;-51
2023/04/20 09:06:21;;;;;;;2.13;1.92;;;;;;;;;;4996789;28;20196;-51
2023/04/20 09:08:47;;;;;;;2.17;1.98;;;;;;;;;;4995889;28;20557;-51
2023/04/20 09:11:20;;;;;;;2.30;2.10;;;;;;;;;;4996847;28;20232;-51
2023/04/20 09:13:57;;;;;;;2.20;2.00;;;;;;;;;;4996394;28;20204;-51
2023/04/20 09:16:23;;;;;;;2.30;2.10;;;;;;;;;;4995841;28;20177;-51
2023/04/20 09:18:53;;;;;;;2.15;1.98;;;;;;;;;;4996147;28;20671;-51
2023/04/20 09:21:19;;;;;;;2.47;2.20;;;;;;;;;;4995940;28;20173;-51
2023/04/20 09:23:55;;;;;;;3.85;2.30;;;;;;;;;;4996330;28;20177;-51
2023/04/20 09:26:21;;;;;;;2.00;1.80;;;;;;;;;;4995655;28;20553;-51
2023/04/20 09:28:47;;;;;;;2.00;1.90;;;;;;;;;;4995636;28;20284;-50
2023/04/20 09:31:17;;;;;;;2.00;1.90;;;;;;;;;;4994996;28;20264;-51
2023/04/20 09:33:43;;;;;;;2.15;1.95;;;;;;;;;;4988976;28;20185;-52
2023/04/20 09:36:09;;;;;;;3.08;2.40;;;;;;;;;;4995765;28;20430;-49
2023/04/20 09:38:35;;;;;;;2.15;1.95;;;;;;;;;;4995678;28;20213;-51
2023/04/20 09:41:01;;;;;;;2.15;1.90;;;;;;;;;;4996796;28;20580;-52
2023/04/20 09:43:29;;;;;;;3.65;1.70;;;;;;;;;;4994381;28;20189;-51
2023/04/20 09:45:55;;;;;;;2.05;1.92;;;;;;;;;;4995638;28;20272;-51
2023/04/20 09:48:21;;;;;;;2.17;2.00;;;;;;;;;;4995442;28;20272;-52
2023/04/20 09:50:48;;;;;;;2.15;1.95;;;;;;;;;;4994790;28;20468;-51
2023/04/20 09:53:16;;;;;;;2.17;1.98;;;;;;;;;;4994967;28;20193;-52
2023/04/20 09:55:47;;;;;;;2.25;2.05;;;;;;;;;;4995883;28;20606;-51
2023/04/20 09:58:13;;;;;;;2.42;1.95;;;;;;;;;;4995760;28;20209;-51
2023/04/20 10:00:39;;;;;;;2.10;1.88;;;;;;;;;;4996009;28;20534;-51
2023/04/20 10:03:07;;;;;;;2.10;1.90;;;;;;;;;;4995502;28;20256;-52
2023/04/20 10:05:35;;;;;;;2.22;2.10;;;;;;;;;;4995707;28;20268;-51
2023/04/20 10:08:01;;;;;;;2.28;2.08;;;;;;;;;;4995575;28;20178;-51
2023/04/20 10:10:27;;;;;;;2.40;1.90;;;;;;;;;;4996154;28;20181;-52
2023/04/20 10:12:54;;;;;;;2.05;1.95;;;;;;;;;;4992019;28;20228;-51
2023/04/20 10:15:23;;;;;;;2.22;2.08;;;;;;;;;;4991761;28;20812;-51
2023/04/20 10:17:50;;;;;;;2.35;1.80;;;;;;;;;;4994927;28;20243;-51
2023/04/20 10:20:23;;;;;;;2.92;2.22;;;;;;;;;;4995975;28;20169;-51
2023/04/20 10:22:51;;;;;;;2.80;2.20;;;;;;;;;;4995279;28;20219;-51
2023/04/20 10:25:19;;;;;;;4.00;2.25;;;;;;;;;;4995075;28;20544;-51
2023/04/20 10:27:55;;;;;;;2.17;1.90;;;;;;;;;;4994090;28;20185;-51
2023/04/20 10:30:21;;;;;;;2.70;2.28;;;;;;;;;;4993260;28;20216;-52
2023/04/20 10:32:47;;;;;;;3.50;2.00;;;;;;;;;;4993753;28;20196;-51
2023/04/20 10:35:15;;;;;;;2.80;2.17;;;;;;;;;;4993789;28;20181;-51
2023/04/20 10:37:47;;;;;;;2.20;1.95;;;;;;;;;;4994416;28;20232;-52
2023/04/20 10:40:13;;;;;;;2.50;2.25;;;;;;;;;;4994458;28;20185;-51
2023/04/20 10:42:43;;;;;;;3.00;2.17;;;;;;;;;;4994071;28;20857;-51
2023/04/20 10:45:10;;;;;;;3.60;2.75;;;;;;;;;;4994612;28;20183;-51
2023/04/20 10:47:36;;;;;;;3.13;2.80;;;;;;;;;;4993861;28;20220;-51
2023/04/20 10:50:12;;;;;;;4.68;2.60;;;;;;;;;;4994881;28;20554;-52
2023/04/20 10:52:39;;;;;;;4.63;2.40;;;;;;;;;;4994984;28;20189;-51
2023/04/20 10:55:05;;;;;;;3.53;2.70;;;;;;;;;;4993402;28;20201;-51
2023/04/20 10:57:32;;;;;;;2.35;2.15;;;;;;;;;;4993633;28;20604;-51
2023/04/20 10:59:58;;;;;;;3.00;2.45;;;;;;;;;;4994269;28;20169;-51
2023/04/20 11:02:24;;;;;;;3.03;2.47;;;;;;;;;;4994296;28;20185;-51
2023/04/20 11:04:52;;;;;;;2.83;2.20;;;;;;;;;;4994290;28;20181;-51
2023/04/20 11:07:19;;;;;;;3.05;2.30;;;;;;;;;;4993532;28;20184;-51
2023/04/20 11:09:52;;;;;;;2.50;2.13;;;;;;;;;;4993337;28;20239;-51
2023/04/20 11:12:18;;;;;;;2.42;2.20;;;;;;;;;;4994957;28;20185;-51
2023/04/20 11:14:54;;;;;;;3.38;2.10;;;;;;;;;;4994078;28;20200;-51
2023/04/20 11:17:31;;;;;;;2.60;2.40;;;;;;;;;;4994440;28;20710;-51
2023/04/20 11:20:05;;;;;;;2.55;2.35;;;;;;;;;;4993167;28;20256;-51
2023/04/20 11:22:31;;;;;;;2.03;1.83;;;;;;;;;;4994472;28;20181;-51
2023/04/20 11:25:07;;;;;;;3.03;2.10;;;;;;;;;;4994197;28;20555;-51
2023/04/20 11:27:33;;;;;;;3.53;2.47;;;;;;;;;;4994078;28;20215;-51
2023/04/20 11:30:04;;;;;;;3.05;1.83;;;;;;;;;;4992452;28;20579;-51
2023/04/20 11:32:30;;;;;;;2.45;2.25;;;;;;;;;;4993984;28;20591;-49
2023/04/20 11:35:00;;;;;;;3.25;2.13;;;;;;;;;;4993067;28;20185;-51
2023/04/20 11:37:27;;;;;;;3.60;2.05;;;;;;;;;;4997154;28;20292;-52
2023/04/20 11:39:59;;;;;;;2.17;1.98;;;;;;;;;;4994032;28;20173;-51
2023/04/20 11:42:26;;;;;;;4.22;2.13;;;;;;;;;;4994041;28;20215;-51
2023/04/20 11:44:52;;;;;;;2.22;1.95;;;;;;;;;;4993142;28;20176;-51
2023/04/20 11:47:18;;;;;;;2.15;1.95;;;;;;;;;;4989423;28;20215;-51
2023/04/20 11:49:44;;;;;;;3.08;2.05;;;;;;;;;;4993212;28;20433;-51
2023/04/20 11:52:10;;;;;;;2.20;2.00;;;;;;;;;;4994260;28;20181;-51
2023/04/20 11:54:36;;;;;;;3.58;2.08;;;;;;;;;;4993680;28;20224;-51
2023/04/20 11:57:02;;;;;;;2.13;1.92;;;;;;;;;;4992211;28;20205;-51
2023/04/20 11:59:28;;;;;;;2.28;2.00;;;;;;;;;;4992775;28;20552;-52
2023/04/20 12:01:54;;;;;;;2.08;1.65;;;;;;;;;;4992871;28;20188;-51
2023/04/20 12:04:20;;;;;;;2.15;1.95;;;;;;;;;;4993988;28;20208;-51
2023/04/20 12:06:46;;;;;;;2.38;2.05;;;;;;;;;;4993204;28;20308;-51
2023/04/20 12:09:12;;;;;;;2.10;1.98;;;;;;;;;;4992533;28;20268;-51
2023/04/20 12:11:38;;;;;;;1.85;1.73;;;;;;;;;;4993877;28;20185;-51
2023/04/20 12:14:04;;;;;;;2.08;1.88;;;;;;;;;;4993514;28;20637;-51
2023/04/20 12:16:30;;;;;;;2.22;2.00;;;;;;;;;;4993866;28;20204;-51
2023/04/20 12:18:55;;;;;;;2.30;1.83;;;;;;;;;;4994089;28;20239;-51
2023/04/20 12:21:21;;;;;;;2.70;1.73;;;;;;;;;;4992944;28;20312;-51
2023/04/20 12:23:49;;;;;;;1.98;1.75;;;;;;;;;;4993844;28;20205;-52
2023/04/20 12:26:15;;;;;;;1.90;1.73;;;;;;;;;;4992865;28;20227;-51
2023/04/20 12:28:43;;;;;;;2.33;2.13;;;;;;;;;;4992504;28;20565;-51
2023/04/20 12:31:09;;;;;;;2.70;1.98;;;;;;;;;;4992644;28;20275;-51
2023/04/20 12:33:35;;;;;;;2.20;2.00;;;;;;;;;;4993070;28;20268;-51
2023/04/20 12:36:01;;;;;;;2.38;2.17;;;;;;;;;;4988802;28;20267;-51
2023/04/20 12:38:27;;;;;;;2.25;1.77;;;;;;;;;;4994034;28;20205;-51
2023/04/20 12:40:53;;;;;;;2.10;1.90;;;;;;;;;;4995697;28;20222;-51
2023/04/20 12:43:19;;;;;;;2.38;1.85;;;;;;;;;;4996622;28;20455;-52
2023/04/20 12:45:46;;;;;;;3.42;1.83;;;;;;;;;;4996232;28;20240;-51
2023/04/20 12:48:12;;;;;;;2.15;1.85;;;;;;;;;;4996430;28;20191;-51
2023/04/20 12:50:38;;;;;;;1.98;1.77;;;;;;;;;;4995607;28;20185;-51
2023/04/20 12:53:04;;;;;;;1.88;1.73;;;;;;;;;;4997051;28;20430;-51
2023/04/20 12:55:30;;;;;;;2.20;2.00;;;;;;;;;;4995954;28;20197;-51
2023/04/20 12:57:56;;;;;;;2.55;1.90;;;;;;;;;;4978182;28;20235;-51
2023/04/20 13:00:22;;;;;;;2.20;1.80;;;;;;;;;;4996203;28;20184;-51
2023/04/20 13:02:49;;;;;;;2.15;1.70;;;;;;;;;;4996156;28;20204;-51
2023/04/20 13:05:15;;;;;;;2.55;1.67;;;;;;;;;;4995246;28;20177;-52
2023/04/20 13:07:41;;;;;;;3.65;1.95;;;;;;;;;;4997411;28;20178;-51
2023/04/20 13:10:07;;;;;;;2.20;1.90;;;;;;;;;;4996252;28;20583;-51
2023/04/20 13:12:33;;;;;;;1.77;1.60;;;;;;;;;;4996025;28;20510;-51
2023/04/20 13:14:59;;;;;;;3.50;2.05;;;;;;;;;;4996504;28;20181;-51
2023/04/20 13:17:25;;;;;;;1.95;1.60;;;;;;;;;;4995961;28;20681;-52
2023/04/20 13:19:51;;;;;;;2.65;2.10;;;;;;;;;;4995627;28;20181;-52
2023/04/20 13:22:17;;;;;;;2.15;1.92;;;;;;;;;;4996077;28;20181;-52
2023/04/20 13:24:42;;;;;;;6.70;2.17;;;;;;;;;;4996146;28;20185;-52
2023/04/20 13:27:09;;;;;;;2.00;1.90;;;;;;;;;;4995292;28;20253;-52
2023/04/20 13:29:35;;;;;;;1.77;1.65;;;;;;;;;;4995839;28;20181;-52
2023/04/20 13:32:01;;;;;;;2.63;2.20;;;;;;;;;;4995060;28;21765;-52
2023/04/20 13:34:27;;;;;;;3.33;2.40;;;;;;;;;;4995126;28;20831;-52
2023/04/20 13:36:53;;;;;;;8.80;2.15;;;;;;;;;;4995793;28;20198;-52
2023/04/20 13:39:20;;;;;;;6.53;2.20;;;;;;;;;;4996316;28;20304;-52
2023/04/20 13:41:48;;;;;;;4.88;2.17;;;;;;;;;;4994622;28;20208;-52
2023/04/20 13:44:14;;;;;;;3.58;1.95;;;;;;;;;;4995281;28;20204;-52
2023/04/20 13:46:42;;;;;;;6.15;1.92;;;;;;;;;;4994541;28;20177;-52
2023/04/20 13:49:08;;;;;;;5.55;2.17;;;;;;;;;;4995551;28;20227;-52
2023/04/20 13:51:34;;;;;;;4.82;2.10;;;;;;;;;;4994887;28;20504;-52
2023/04/20 13:54:00;;;;;;;5.85;2.53;;;;;;;;;;4995431;28;20251;-52
2023/04/20 13:56:26;;;;;;;6.68;2.55;;;;;;;;;;4995320;28;20673;-52
2023/04/20 13:58:52;;;;;;;3.83;2.30;;;;;;;;;;4995193;28;20471;-52
2023/04/20 14:01:18;;;;;;;4.30;2.25;;;;;;;;;;4994461;28;20185;-52
2023/04/20 14:03:44;;;;;;;6.65;2.50;;;;;;;;;;4995367;28;20232;-52
2023/04/20 14:06:10;;;;;;;3.65;2.17;;;;;;;;;;4992538;28;20185;-52
2023/04/20 14:08:36;;;;;;;5.25;2.60;;;;;;;;;;4995700;28;20185;-52
2023/04/20 14:11:02;;;;;;;5.93;2.20;;;;;;;;;;4992469;28;20240;-52
2023/04/20 14:13:27;;;;;;;3.83;1.98;;;;;;;;;;4995196;28;20244;-52
2023/04/20 14:15:54;;;;;;;4.25;2.45;;;;;;;;;;4994590;28;20220;-52
2023/04/20 14:18:20;;;;;;;3.13;2.83;;;;;;;;;;4995724;28;20240;-52
2023/04/20 14:20:48;;;;;;;6.38;2.45;;;;;;;;;;4995042;28;20650;-52
2023/04/20 14:23:14;;;;;;;3.10;2.42;;;;;;;;;;4993958;28;20271;-52
2023/04/20 14:25:40;;;;;;;3.67;2.40;;;;;;;;;;4994149;28;20173;-52
2023/04/20 14:28:06;;;;;;;5.80;2.60;;;;;;;;;;4994552;28;20192;-52
2023/04/20 14:30:32;;;;;;;3.40;2.50;;;;;;;;;;4995290;28;20185;-52
2023/04/20 14:32:59;;;;;;;2.97;2.38;;;;;;;;;;4994674;28;20216;-52
2023/04/20 14:35:26;;;;;;;3.38;2.72;;;;;;;;;;4994521;28;20288;-52
2023/04/20 14:37:52;;;;;;;3.10;2.80;;;;;;;;;;4994819;28;21459;-52